createdAt,value
2023-02-25T00:01:35.910Z,4.47
2023-02-25T00:04:02.644Z,4.35
2023-02-25T00:06:29.498Z,4.43
2023-02-25T00:08:56.825Z,4.25
2023-02-25T00:11:26.027Z,4.48
2023-02-25T00:13:53.487Z,4.47
2023-02-25T00:16:22.552Z,4.10
2023-02-25T00:18:57.553Z,4.46
2023-02-25T00:21:25.776Z,4.35
2023-02-25T00:23:53.822Z,4.71
2023-02-25T00:26:22.044Z,4.37
2023-02-25T00:28:49.506Z,4.59
2023-02-25T00:31:19.888Z,4.41
2023-02-25T00:33:46.713Z,4.26
2023-02-25T00:36:19.043Z,4.60
2023-02-25T00:38:48.480Z,4.48
2023-02-25T00:41:17.109Z,4.62
2023-02-25T00:43:48.610Z,4.62
2023-02-25T00:46:15.354Z,4.55
2023-02-25T00:48:42.310Z,4.20
2023-02-25T00:51:11.121Z,4.48
2023-02-25T00:53:38.002Z,4.51
2023-02-25T00:56:07.138Z,4.70
2023-02-25T00:58:40.232Z,4.38
2023-02-25T01:01:18.055Z,4.38
2023-02-25T01:03:44.783Z,4.30
2023-02-25T01:06:12.052Z,4.45
2023-02-25T01:08:38.880Z,4.16
2023-02-25T01:11:29.279Z,4.15
2023-02-25T01:14:02.420Z,4.30
2023-02-25T01:16:31.586Z,4.40
2023-02-25T01:19:02.958Z,3.84
2023-02-25T01:21:36.224Z,4.00
2023-02-25T01:24:07.445Z,4.56
2023-02-25T01:26:36.884Z,4.56
2023-02-25T01:29:07.975Z,4.54
2023-02-25T01:31:35.057Z,4.52
2023-02-25T01:34:03.646Z,4.51
2023-02-25T01:36:32.599Z,4.51
2023-02-25T01:39:00.876Z,4.55
2023-02-25T01:41:29.551Z,4.66
2023-02-25T01:44:22.082Z,4.51
2023-02-25T01:46:54.219Z,4.41
2023-02-25T01:49:33.090Z,4.14
2023-02-25T01:52:21.759Z,4.54
2023-02-25T01:54:53.799Z,4.12
2023-02-25T01:57:21.416Z,4.31
2023-02-25T01:59:50.626Z,4.25
2023-02-25T02:02:21.045Z,4.21
2023-02-25T02:04:50.305Z,4.05
2023-02-25T02:07:18.839Z,4.02
2023-02-25T02:09:58.690Z,4.19
2023-02-25T02:12:26.323Z,4.57
2023-02-25T02:14:55.238Z,4.33
2023-02-25T02:17:35.922Z,4.03
2023-02-25T02:20:13.114Z,4.25
2023-02-25T02:22:51.987Z,4.71
2023-02-25T02:25:27.523Z,4.63
2023-02-25T02:27:57.291Z,4.18
2023-02-25T02:30:29.945Z,4.48
2023-02-25T02:33:14.821Z,4.58
2023-02-25T02:35:44.162Z,4.73
2023-02-25T02:38:30.442Z,4.31
2023-02-25T02:41:15.100Z,4.69
2023-02-25T02:44:08.645Z,4.53
2023-02-25T02:46:45.950Z,4.57
2023-02-25T02:49:21.549Z,4.30
2023-02-25T02:52:03.157Z,4.68
2023-02-25T02:54:34.679Z,4.12
2023-02-25T02:57:04.083Z,4.51
2023-02-25T02:59:42.972Z,4.49
2023-02-25T03:02:17.298Z,4.51
2023-02-25T03:04:47.650Z,4.34
2023-02-25T03:07:16.222Z,4.16
2023-02-25T03:09:54.019Z,4.34
2023-02-25T03:12:20.819Z,3.99
2023-02-25T03:14:47.559Z,4.25
2023-02-25T03:17:16.809Z,4.34
2023-02-25T03:19:49.393Z,4.46
2023-02-25T03:22:30.178Z,3.90
2023-02-25T03:25:08.587Z,3.99
2023-02-25T03:27:46.752Z,4.51
2023-02-25T03:30:24.920Z,4.54
2023-02-25T03:32:58.176Z,4.06
2023-02-25T03:35:27.070Z,4.59
2023-02-25T03:38:01.112Z,4.29
2023-02-25T03:40:29.811Z,4.46
2023-02-25T03:43:09.403Z,3.90
2023-02-25T03:45:38.803Z,4.58
2023-02-25T03:48:06.222Z,4.38
2023-02-25T03:50:41.233Z,4.43
2023-02-25T03:53:08.019Z,4.30
2023-02-25T03:55:34.944Z,4.22
2023-02-25T03:58:01.759Z,4.44
2023-02-25T04:00:32.408Z,4.13
2023-02-25T04:02:59.427Z,4.51
2023-02-25T04:05:27.854Z,4.32
2023-02-25T04:07:59.097Z,4.11
2023-02-25T04:10:26.384Z,4.25
2023-02-25T04:12:53.995Z,4.10
2023-02-25T04:15:21.891Z,4.54
2023-02-25T04:17:48.641Z,3.77
2023-02-25T04:20:19.857Z,4.18
2023-02-25T04:22:46.575Z,4.02
2023-02-25T04:25:13.351Z,4.01
2023-02-25T04:27:40.263Z,3.90
2023-02-25T04:30:07.823Z,3.68
2023-02-25T04:32:34.575Z,4.26
2023-02-25T04:35:03.566Z,3.90
2023-02-25T04:37:30.958Z,4.10
2023-02-25T04:39:57.826Z,3.88
2023-02-25T04:42:24.531Z,4.08
2023-02-25T04:44:51.256Z,3.85
2023-02-25T04:47:19.268Z,3.75
2023-02-25T04:49:46.166Z,3.72
2023-02-25T04:52:14.817Z,3.52
2023-02-25T04:54:41.996Z,3.75
2023-02-25T04:57:11.304Z,3.31
2023-02-25T04:59:38.531Z,3.91
2023-02-25T05:02:06.198Z,3.49
2023-02-25T05:04:33.742Z,3.86
2023-02-25T05:07:00.910Z,4.04
2023-02-25T05:09:28.113Z,3.33
2023-02-25T05:11:54.795Z,3.89
2023-02-25T05:14:21.776Z,3.73
2023-02-25T05:16:48.668Z,3.85
2023-02-25T05:19:24.178Z,3.92
2023-02-25T05:21:51.762Z,3.63
2023-02-25T05:24:19.139Z,3.60
2023-02-25T05:26:46.288Z,3.82
2023-02-25T05:29:13.017Z,3.40
2023-02-25T05:31:40.238Z,3.58
2023-02-25T05:34:07.062Z,3.94
2023-02-25T05:36:33.999Z,3.73
2023-02-25T05:39:03.048Z,3.72
2023-02-25T05:41:30.779Z,3.77
2023-02-25T05:43:58.364Z,3.97
2023-02-25T05:46:26.729Z,3.80
2023-02-25T05:48:54.317Z,4.01
2023-02-25T05:51:23.753Z,4.38
2023-02-25T05:53:51.850Z,4.06
2023-02-25T05:56:21.839Z,4.03
2023-02-25T05:58:50.040Z,4.36
2023-02-25T06:01:22.857Z,4.09
2023-02-25T06:03:51.971Z,4.25
2023-02-25T06:06:24.956Z,3.76
2023-02-25T06:08:52.399Z,4.34
2023-02-25T06:11:24.684Z,4.26
2023-02-25T06:13:53.495Z,4.30
2023-02-25T06:16:20.859Z,4.23
2023-02-25T06:18:48.982Z,3.98
2023-02-25T06:21:16.214Z,3.91
2023-02-25T06:23:44.554Z,4.22
2023-02-25T06:26:13.774Z,4.41
2023-02-25T06:28:40.719Z,3.90
2023-02-25T06:31:14.305Z,3.79
2023-02-25T06:33:41.367Z,3.48
2023-02-25T06:36:09.330Z,3.51
2023-02-25T06:38:36.596Z,3.54
2023-02-25T06:41:15.570Z,3.80
2023-02-25T06:43:42.959Z,3.93
2023-02-25T06:46:12.206Z,3.54
2023-02-25T06:48:39.580Z,3.31
2023-02-25T06:51:11.640Z,3.53
2023-02-25T06:53:43.908Z,3.73
2023-02-25T06:56:13.080Z,3.72
2023-02-25T06:58:40.142Z,3.61
2023-02-25T07:01:08.493Z,3.53
2023-02-25T07:03:35.457Z,3.23
2023-02-25T07:06:04.181Z,3.94
2023-02-25T07:08:31.434Z,3.39
2023-02-25T07:11:18.461Z,3.72
2023-02-25T07:13:47.426Z,3.67
2023-02-25T07:16:15.652Z,3.94
2023-02-25T07:18:42.678Z,3.91
2023-02-25T07:21:12.387Z,3.78
2023-02-25T07:23:39.201Z,3.95
2023-02-25T07:26:07.417Z,3.82
2023-02-25T07:28:34.835Z,3.66
2023-02-25T07:31:10.406Z,4.13
2023-02-25T07:33:37.218Z,3.70
2023-02-25T07:36:04.110Z,3.82
2023-02-25T07:38:30.954Z,3.80
2023-02-25T07:40:58.897Z,4.12
2023-02-25T07:43:25.579Z,4.22
2023-02-25T07:45:52.305Z,4.00
2023-02-25T07:48:19.126Z,4.30
2023-02-25T07:50:45.933Z,3.98
2023-02-25T07:53:12.663Z,4.42
2023-02-25T07:55:43.564Z,4.15
2023-02-25T07:58:11.104Z,4.49
2023-02-25T08:00:39.020Z,4.31
2023-02-25T08:03:05.974Z,4.24
2023-02-25T08:05:36.927Z,4.24
2023-02-25T08:08:04.783Z,4.16
2023-02-25T08:10:31.834Z,3.87
2023-02-25T08:12:58.665Z,3.58
2023-02-25T08:15:25.456Z,3.76
2023-02-25T08:17:53.231Z,3.67
2023-02-25T08:20:23.163Z,3.35
2023-02-25T08:22:50.899Z,3.92
2023-02-25T08:25:17.866Z,3.60
2023-02-25T08:27:44.868Z,3.72
2023-02-25T08:30:12.346Z,3.64
2023-02-25T08:32:39.575Z,3.81
2023-02-25T08:35:06.863Z,3.87
2023-02-25T08:37:36.673Z,4.03
2023-02-25T08:40:07.851Z,3.99
2023-02-25T08:42:34.618Z,4.09
2023-02-25T08:45:05.588Z,4.16
2023-02-25T08:47:34.773Z,3.95
2023-02-25T08:50:01.600Z,3.93
2023-02-25T08:52:42.169Z,3.45
2023-02-25T08:55:09.978Z,4.32
2023-02-25T08:57:39.635Z,4.08
2023-02-25T09:00:09.570Z,3.96
2023-02-25T09:02:36.528Z,4.27
2023-02-25T09:05:07.343Z,4.21
2023-02-25T09:07:34.264Z,4.47
2023-02-25T09:10:01.447Z,4.01
2023-02-25T09:12:28.215Z,4.08
2023-02-25T09:14:54.967Z,4.46
2023-02-25T09:17:22.274Z,4.54
2023-02-25T09:19:51.784Z,4.79
2023-02-25T09:22:19.967Z,4.81
2023-02-25T09:24:49.957Z,4.65
2023-02-25T09:27:16.759Z,4.33
2023-02-25T09:29:46.680Z,4.09
2023-02-25T09:32:20.266Z,4.55
2023-02-25T09:34:50.323Z,4.90
2023-02-25T09:37:20.341Z,4.90
2023-02-25T09:39:47.066Z,4.44
2023-02-25T09:42:21.219Z,4.66
2023-02-25T09:45:00.148Z,4.82
2023-02-25T09:47:39.037Z,4.82
2023-02-25T09:50:11.921Z,4.60
2023-02-25T09:52:51.197Z,4.41
2023-02-25T09:55:37.274Z,4.41
2023-02-25T09:58:40.945Z,4.93
2023-02-25T10:01:27.176Z,4.61
2023-02-25T10:04:15.955Z,4.87
2023-02-25T10:06:47.108Z,4.56
2023-02-25T10:09:37.950Z,4.95
2023-02-25T10:12:17.115Z,5.08
2023-02-25T10:14:45.126Z,5.21
2023-02-25T10:17:43.559Z,5.09
2023-02-25T10:20:42.085Z,5.22
2023-02-25T10:23:38.578Z,4.68
2023-02-25T10:26:24.737Z,5.27
2023-02-25T10:28:58.944Z,5.36
2023-02-25T10:31:27.008Z,5.45
2023-02-25T10:33:55.630Z,5.16
2023-02-25T10:36:30.802Z,5.43
2023-02-25T10:38:58.125Z,5.23
2023-02-25T10:41:26.979Z,5.42
2023-02-25T10:43:55.444Z,4.65
2023-02-25T10:46:49.536Z,5.18
2023-02-25T10:49:23.217Z,5.37
2023-02-25T10:52:04.175Z,5.82
2023-02-25T10:54:44.648Z,5.50
2023-02-25T10:57:16.766Z,5.23
2023-02-25T10:59:45.461Z,5.45
2023-02-25T11:02:31.624Z,5.44
2023-02-25T11:04:58.726Z,5.62
2023-02-25T11:07:34.288Z,5.36
2023-02-25T11:10:07.902Z,5.68
2023-02-25T11:12:49.390Z,5.49
2023-02-25T11:15:43.717Z,6.06
2023-02-25T11:18:20.838Z,6.06
2023-02-25T11:20:57.309Z,5.73
2023-02-25T11:23:31.909Z,5.58
2023-02-25T11:25:59.624Z,5.88
2023-02-25T11:28:34.721Z,5.56
2023-02-25T11:31:11.094Z,6.05
2023-02-25T11:33:42.882Z,5.82
2023-02-25T11:36:10.984Z,5.56
2023-02-25T11:38:42.797Z,6.01
2023-02-25T11:41:23.406Z,6.14
2023-02-25T11:43:50.783Z,6.34
2023-02-25T11:46:28.141Z,6.22
2023-02-25T11:49:12.092Z,6.14
2023-02-25T11:51:51.767Z,6.07
2023-02-25T11:54:52.648Z,6.18
2023-02-25T11:57:35.809Z,6.16
2023-02-25T12:00:20.716Z,6.38
2023-02-25T12:03:15.960Z,6.43
2023-02-25T12:06:14.062Z,6.38
2023-02-25T12:09:09.764Z,6.14
2023-02-25T12:11:36.473Z,6.28
2023-02-25T12:14:21.894Z,6.16
2023-02-25T12:17:19.731Z,6.43
2023-02-25T12:20:14.618Z,6.46
2023-02-25T12:22:56.390Z,6.45
2023-02-25T12:25:29.080Z,6.50
2023-02-25T12:28:01.838Z,6.64
2023-02-25T12:30:40.747Z,6.08
2023-02-25T12:33:37.362Z,6.17
2023-02-25T12:36:28.970Z,6.54
2023-02-25T12:39:17.867Z,6.70
2023-02-25T12:42:07.183Z,6.50
2023-02-25T12:44:50.445Z,6.19
2023-02-25T12:47:35.755Z,6.38
2023-02-25T12:50:27.174Z,6.58
2023-02-25T12:53:18.355Z,6.43
2023-02-25T12:56:02.991Z,6.52
2023-02-25T12:59:07.379Z,6.53
2023-02-25T13:01:57.771Z,6.35
2023-02-25T13:04:33.172Z,6.01
2023-02-25T13:07:25.498Z,6.32
2023-02-25T13:10:01.513Z,6.43
2023-02-25T13:12:46.673Z,6.51
2023-02-25T13:15:36.901Z,6.37
2023-02-25T13:18:24.172Z,6.40
2023-02-25T13:20:55.530Z,6.31
2023-02-25T13:23:40.547Z,6.46
2023-02-25T13:26:32.245Z,6.54
2023-02-25T13:29:35.086Z,6.18
2023-02-25T13:32:04.756Z,6.32
2023-02-25T13:34:46.766Z,5.65
2023-02-25T13:37:41.291Z,6.23
2023-02-25T13:40:20.776Z,6.14
2023-02-25T13:43:01.094Z,6.24
2023-02-25T13:46:16.785Z,6.39
2023-02-25T13:49:01.797Z,6.22
2023-02-25T13:51:47.045Z,6.11
2023-02-25T13:54:54.058Z,6.44
2023-02-25T13:58:02.729Z,6.30
2023-02-25T14:00:54.354Z,6.46
2023-02-25T14:03:39.729Z,6.36
2023-02-25T14:06:15.321Z,6.55
2023-02-25T14:09:18.344Z,5.77
2023-02-25T14:12:11.934Z,6.43
2023-02-25T14:14:57.873Z,5.93
2023-02-25T14:17:44.772Z,5.92
2023-02-25T14:20:26.536Z,5.66
2023-02-25T14:23:01.029Z,5.76
2023-02-25T14:26:06.638Z,6.09
2023-02-25T14:28:45.573Z,6.02
2023-02-25T14:31:19.182Z,5.76
2023-02-25T14:34:07.249Z,6.15
2023-02-25T14:36:39.728Z,6.31
2023-02-25T14:39:18.400Z,6.55
2023-02-25T14:41:57.783Z,6.28
2023-02-25T14:44:39.341Z,6.04
2023-02-25T14:47:30.440Z,6.07
2023-02-25T14:50:19.401Z,5.99
2023-02-25T14:53:15.097Z,6.10
2023-02-25T14:55:41.820Z,6.01
2023-02-25T14:58:30.530Z,6.07
2023-02-25T15:01:08.337Z,6.01
2023-02-25T15:04:03.073Z,6.10
2023-02-25T15:07:00.698Z,5.64
2023-02-25T15:09:42.363Z,6.10
2023-02-25T15:12:20.500Z,5.65
2023-02-25T15:15:09.082Z,6.31
2023-02-25T15:18:11.753Z,5.80
2023-02-25T15:20:40.425Z,6.06
2023-02-25T15:23:20.889Z,5.97
2023-02-25T15:25:54.076Z,6.19
2023-02-25T15:28:23.849Z,6.27
2023-02-25T15:31:00.340Z,6.51
2023-02-25T15:33:28.504Z,6.47
2023-02-25T15:35:58.065Z,5.73
2023-02-25T15:38:51.991Z,6.45
2023-02-25T15:41:28.141Z,6.33
2023-02-25T15:44:24.041Z,6.35
2023-02-25T15:46:51.207Z,5.97
2023-02-25T15:49:30.540Z,6.19
2023-02-25T15:52:00.019Z,5.96
2023-02-25T15:54:29.755Z,6.36
2023-02-25T15:57:01.553Z,6.37
2023-02-25T15:59:45.151Z,6.29
2023-02-25T16:02:30.635Z,6.15
2023-02-25T16:05:10.052Z,6.07
2023-02-25T16:07:49.979Z,5.14
2023-02-25T16:10:23.509Z,6.17
2023-02-25T16:12:57.824Z,6.24
2023-02-25T16:15:37.791Z,5.82
2023-02-25T16:18:35.970Z,6.00
2023-02-25T16:21:07.075Z,5.43
2023-02-25T16:23:39.193Z,5.72
2023-02-25T16:26:31.776Z,5.94
2023-02-25T16:29:19.008Z,5.84
2023-02-25T16:32:17.292Z,5.93
2023-02-25T16:35:15.072Z,5.97
2023-02-25T16:37:54.162Z,5.80
2023-02-25T16:40:40.498Z,5.21
2023-02-25T16:43:14.641Z,5.14
2023-02-25T16:45:57.146Z,5.85
2023-02-25T16:48:34.899Z,5.13
2023-02-25T16:51:10.480Z,5.48
2023-02-25T16:53:43.886Z,5.79
2023-02-25T16:56:24.172Z,5.78
2023-02-25T16:59:17.312Z,5.84
2023-02-25T17:02:16.507Z,5.89
2023-02-25T17:04:50.996Z,5.93
2023-02-25T17:07:19.639Z,5.82
2023-02-25T17:09:55.068Z,5.39
2023-02-25T17:12:40.976Z,5.74
2023-02-25T17:15:19.638Z,5.31
2023-02-25T17:17:50.005Z,5.49
2023-02-25T17:20:24.783Z,5.37
2023-02-25T17:22:52.117Z,5.32
2023-02-25T17:25:20.660Z,5.35
2023-02-25T17:27:50.332Z,5.23
2023-02-25T17:30:40.856Z,5.53
2023-02-25T17:33:26.589Z,5.42
2023-02-25T17:35:58.511Z,4.99
2023-02-25T17:38:26.247Z,5.20
2023-02-25T17:40:55.361Z,5.59
2023-02-25T17:43:24.654Z,5.57
2023-02-25T17:46:01.520Z,5.32
2023-02-25T17:48:31.438Z,4.99
2023-02-25T17:51:07.944Z,5.48
2023-02-25T17:53:50.392Z,5.51
2023-02-25T17:56:25.585Z,5.30
2023-02-25T17:58:57.990Z,5.50
2023-02-25T18:01:45.151Z,5.38
2023-02-25T18:04:24.932Z,5.39
2023-02-25T18:06:55.466Z,5.39
2023-02-25T18:09:45.969Z,5.10
2023-02-25T18:12:26.546Z,4.92
2023-02-25T18:15:04.927Z,5.42
2023-02-25T18:17:37.208Z,5.33
2023-02-25T18:20:29.491Z,5.05
2023-02-25T18:23:00.199Z,5.22
2023-02-25T18:25:37.056Z,5.26
2023-02-25T18:28:06.961Z,4.71
2023-02-25T18:30:34.110Z,5.09
2023-02-25T18:33:00.892Z,5.04
2023-02-25T18:35:30.107Z,5.04
2023-02-25T18:37:58.141Z,4.80
2023-02-25T18:40:37.082Z,5.17
2023-02-25T18:43:04.841Z,4.89
2023-02-25T18:45:33.209Z,4.69
2023-02-25T18:48:00.951Z,4.65
2023-02-25T18:50:32.073Z,4.94
2023-02-25T18:52:59.484Z,4.83
2023-02-25T18:55:29.494Z,4.52
2023-02-25T18:57:56.638Z,4.54
2023-02-25T19:00:25.289Z,4.92
2023-02-25T19:02:54.781Z,4.76
2023-02-25T19:05:24.138Z,4.55
2023-02-25T19:07:51.043Z,4.32
2023-02-25T19:10:22.706Z,4.13
2023-02-25T19:12:50.937Z,4.57
2023-02-25T19:15:21.726Z,4.60
2023-02-25T19:17:50.518Z,4.73
2023-02-25T19:20:19.567Z,4.51
2023-02-25T19:22:48.990Z,4.57
2023-02-25T19:25:20.864Z,4.49
2023-02-25T19:33:16.819Z,4.20
2023-02-25T19:35:44.197Z,4.39
2023-02-25T19:38:16.943Z,4.46
2023-02-25T19:40:44.536Z,4.18
2023-02-25T19:43:12.168Z,4.57
2023-02-25T19:45:40.890Z,4.28
2023-02-25T19:48:08.723Z,4.38
2023-02-25T19:50:37.143Z,4.18
2023-02-25T19:53:05.710Z,4.55
2023-02-25T19:55:33.473Z,4.47
2023-02-25T19:58:00.310Z,4.78
2023-02-25T20:00:27.706Z,4.69
2023-02-25T20:02:54.808Z,4.41
2023-02-25T20:05:22.852Z,4.17
2023-02-25T20:07:50.039Z,4.73
2023-02-25T20:10:17.374Z,4.65
2023-02-25T20:12:46.176Z,4.32
2023-02-25T20:15:14.364Z,4.38
2023-02-25T20:17:43.067Z,4.47
2023-02-25T20:20:11.221Z,4.72
2023-02-25T20:22:39.316Z,4.43
2023-02-25T20:25:07.907Z,4.56
2023-02-25T20:27:37.185Z,4.69
2023-02-25T20:30:06.760Z,4.65
2023-02-25T20:32:33.888Z,4.68
2023-02-25T20:35:00.890Z,4.28
2023-02-25T20:37:33.094Z,4.65
2023-02-25T20:40:00.449Z,4.90
2023-02-25T20:42:30.301Z,4.26
2023-02-25T20:44:58.886Z,4.56
2023-02-25T20:47:31.598Z,4.51
2023-02-25T20:49:58.764Z,4.66
2023-02-25T20:52:29.784Z,4.86
2023-02-25T20:54:58.238Z,4.51
2023-02-25T20:57:26.734Z,4.75
2023-02-25T20:59:54.664Z,4.87
2023-02-25T21:02:21.799Z,4.63
2023-02-25T21:04:48.643Z,4.60
2023-02-25T21:07:15.796Z,5.00
2023-02-25T21:09:42.596Z,4.44
2023-02-25T21:12:10.429Z,4.82
2023-02-25T21:14:37.176Z,4.63
2023-02-25T21:17:09.474Z,4.94
2023-02-25T21:19:38.782Z,4.71
2023-02-25T21:22:07.171Z,4.92
2023-02-25T21:24:34.767Z,4.83
2023-02-25T21:27:01.921Z,4.69
2023-02-25T21:29:29.111Z,4.51
2023-02-25T21:31:55.903Z,4.31
2023-02-25T21:34:22.941Z,4.75
2023-02-25T21:36:50.424Z,4.34
2023-02-25T21:39:17.226Z,4.79
2023-02-25T21:41:44.870Z,4.46
2023-02-25T21:44:12.445Z,4.53
2023-02-25T21:46:39.847Z,4.75
2023-02-25T21:49:06.634Z,4.66
2023-02-25T21:51:33.373Z,4.49
2023-02-25T21:54:01.410Z,4.73
2023-02-25T21:56:29.291Z,4.75
2023-02-25T21:58:58.518Z,4.90
2023-02-25T22:01:28.974Z,5.09
2023-02-25T22:03:56.279Z,4.86
2023-02-25T22:06:26.867Z,4.92
2023-02-25T22:08:54.562Z,4.87
2023-02-25T22:11:23.998Z,4.83
2023-02-25T22:13:51.123Z,4.83
2023-02-25T22:16:18.026Z,4.87
2023-02-25T22:18:45.066Z,4.80
2023-02-25T22:21:18.414Z,4.55
2023-02-25T22:23:46.151Z,5.20
2023-02-25T22:26:15.131Z,4.61
2023-02-25T22:28:43.492Z,4.97
2023-02-25T22:31:12.463Z,5.05
2023-02-25T22:33:39.742Z,5.04
2023-02-25T22:36:07.521Z,4.91
2023-02-25T22:38:36.981Z,5.23
2023-02-25T22:41:05.475Z,5.12
2023-02-25T22:43:33.467Z,5.16
2023-02-25T22:46:18.790Z,5.00
2023-02-25T22:48:47.285Z,4.91
2023-02-25T22:51:19.879Z,4.76
2023-02-25T22:53:46.602Z,5.11
2023-02-25T22:56:13.341Z,4.79
2023-02-25T22:58:40.805Z,4.84
2023-02-25T23:01:12.528Z,4.69
2023-02-25T23:03:39.445Z,4.84
2023-02-25T23:06:07.445Z,5.02
2023-02-25T23:08:35.279Z,5.07
2023-02-25T23:11:21.025Z,5.30
2023-02-25T23:13:51.126Z,4.86
2023-02-25T23:16:24.585Z,5.17
2023-02-25T23:18:51.822Z,5.14
2023-02-25T23:21:19.971Z,4.83
2023-02-25T23:23:52.124Z,4.75
2023-02-25T23:26:40.844Z,5.09
2023-02-25T23:29:10.339Z,5.13
2023-02-25T23:31:42.167Z,5.20
2023-02-25T23:34:12.997Z,4.61
2023-02-25T23:36:41.276Z,4.90
2023-02-25T23:39:09.725Z,4.62
2023-02-25T23:41:37.602Z,5.02
2023-02-25T23:44:05.738Z,5.04
2023-02-25T23:46:32.824Z,4.56
2023-02-25T23:49:02.174Z,4.42
2023-02-25T23:51:29.754Z,4.67
2023-02-25T23:54:01.089Z,4.92
2023-02-25T23:56:29.712Z,4.67
2023-02-25T23:58:57.184Z,5.01
